Time;durP1;ratioP1;P1;durP2;ratioP2;P2;SDS_P1;SDS_P2;PMS_P1;PMS_P2;Temp;Humidity;BMP_temperature;BMP_pressure;BME280_temperature;BME280_humidity;BME280_pressure;Samples;Min_cycle;Max_cycle;Signal;HPM_P1;HPM_P2
2023/03/22 00:01:27;;;;;;;12.33;8.63;;;;;;;;;;5035203;28;20209;-72
2023/03/22 00:03:55;;;;;;;10.67;8.00;;;;;;;;;;5035287;28;20226;-71
2023/03/22 00:06:22;;;;;;;14.00;8.67;;;;;;;;;;5031975;28;20255;-71
2023/03/22 00:08:49;;;;;;;12.30;8.27;;;;;;;;;;5049483;28;20198;-71
2023/03/22 00:11:19;;;;;;;11.33;7.87;;;;;;;;;;5047717;28;20200;-73
2023/03/22 00:13:45;;;;;;;14.37;9.00;;;;;;;;;;5034237;28;20783;-74
2023/03/22 00:16:13;;;;;;;13.27;7.87;;;;;;;;;;5029546;28;20234;-72
2023/03/22 00:18:39;;;;;;;10.83;8.43;;;;;;;;;;5032721;28;20218;-71
2023/03/22 00:21:10;;;;;;;12.20;8.37;;;;;;;;;;5021820;28;20224;-73
2023/03/22 00:23:37;;;;;;;13.00;8.70;;;;;;;;;;5029460;28;20215;-72
2023/03/22 00:26:04;;;;;;;13.07;8.97;;;;;;;;;;5025457;28;20191;-72
2023/03/22 00:28:33;;;;;;;11.37;8.27;;;;;;;;;;5030426;28;20197;-72
2023/03/22 00:31:01;;;;;;;11.47;8.67;;;;;;;;;;5033917;28;20675;-71
2023/03/22 00:33:28;;;;;;;11.57;7.73;;;;;;;;;;5034371;28;20195;-71
2023/03/22 00:35:57;;;;;;;13.87;8.37;;;;;;;;;;5031877;28;20195;-71
2023/03/22 00:38:32;;;;;;;11.20;8.03;;;;;;;;;;5030559;28;20223;-72
2023/03/22 00:41:04;;;;;;;12.40;7.93;;;;;;;;;;5037880;28;20655;-72
2023/03/22 00:43:31;;;;;;;11.17;7.67;;;;;;;;;;5030091;28;20233;-73
2023/03/22 00:46:00;;;;;;;11.70;7.67;;;;;;;;;;5027020;28;20200;-73
2023/03/22 00:48:26;;;;;;;10.50;7.97;;;;;;;;;;5044124;28;20200;-72
2023/03/22 00:50:53;;;;;;;13.07;7.57;;;;;;;;;;5033229;28;20276;-73
2023/03/22 00:53:19;;;;;;;11.37;7.63;;;;;;;;;;5045771;28;20192;-72
2023/03/22 00:55:47;;;;;;;10.83;7.00;;;;;;;;;;5039978;28;20194;-72
2023/03/22 00:58:14;;;;;;;9.10;6.47;;;;;;;;;;5033330;28;20272;-74
2023/03/22 01:00:41;;;;;;;8.97;7.07;;;;;;;;;;5031318;28;20219;-73
2023/03/22 01:03:07;;;;;;;10.07;6.90;;;;;;;;;;5039964;28;20618;-73
2023/03/22 01:05:36;;;;;;;9.83;6.80;;;;;;;;;;5046445;28;20237;-73
2023/03/22 01:08:07;;;;;;;9.63;6.90;;;;;;;;;;5038156;28;20191;-73
2023/03/22 01:10:34;;;;;;;9.50;6.40;;;;;;;;;;5027982;28;20453;-72
2023/03/22 01:13:06;;;;;;;8.93;6.07;;;;;;;;;;5027940;28;20622;-73
2023/03/22 01:15:33;;;;;;;8.90;6.30;;;;;;;;;;5049514;28;20225;-73
2023/03/22 01:18:00;;;;;;;10.13;6.50;;;;;;;;;;5047731;28;20513;-73
2023/03/22 01:20:27;;;;;;;10.83;5.97;;;;;;;;;;5028895;28;20643;-72
2023/03/22 01:22:54;;;;;;;8.50;6.37;;;;;;;;;;5045904;28;20219;-72
2023/03/22 01:25:21;;;;;;;8.43;6.27;;;;;;;;;;5027879;28;20227;-73
2023/03/22 01:27:48;;;;;;;9.57;6.73;;;;;;;;;;5048850;28;20188;-73
2023/03/22 01:30:16;;;;;;;9.27;6.13;;;;;;;;;;5032967;28;20193;-73
2023/03/22 01:32:46;;;;;;;9.87;6.57;;;;;;;;;;5033674;28;20933;-73
2023/03/22 01:35:13;;;;;;;10.73;6.63;;;;;;;;;;5028489;28;20317;-73
2023/03/22 01:37:47;;;;;;;9.13;6.87;;;;;;;;;;5029057;28;20227;-73
2023/03/22 01:40:15;;;;;;;10.13;6.93;;;;;;;;;;5032171;28;20224;-72
2023/03/22 01:42:45;;;;;;;8.47;6.33;;;;;;;;;;5036396;28;20286;-71
2023/03/22 01:45:31;;;;;;;10.60;7.60;;;;;;;;;;5041777;28;20231;-73
2023/03/22 01:48:00;;;;;;;12.77;7.17;;;;;;;;;;5042134;28;20225;-74
2023/03/22 01:50:31;;;;;;;11.70;8.03;;;;;;;;;;5040656;28;20263;-71
2023/03/22 01:52:58;;;;;;;12.57;8.20;;;;;;;;;;5045723;28;20195;-73
2023/03/22 01:55:33;;;;;;;13.03;8.70;;;;;;;;;;5030850;28;20220;-72
2023/03/22 01:58:10;;;;;;;14.97;8.23;;;;;;;;;;5031782;28;20273;-73
2023/03/22 02:00:49;;;;;;;12.20;9.40;;;;;;;;;;5034574;28;20201;-73
2023/03/22 02:03:34;;;;;;;13.70;9.13;;;;;;;;;;5031859;28;20778;-72
2023/03/22 02:06:01;;;;;;;15.27;8.63;;;;;;;;;;5035082;28;20278;-73
2023/03/22 02:08:35;;;;;;;11.47;9.17;;;;;;;;;;5029678;28;20195;-73
2023/03/22 02:11:11;;;;;;;11.87;8.97;;;;;;;;;;5037366;28;20273;-73
2023/03/22 02:13:46;;;;;;;14.20;9.23;;;;;;;;;;5039235;28;20227;-73
2023/03/22 02:16:29;;;;;;;14.53;9.40;;;;;;;;;;5032162;28;20213;-73
2023/03/22 02:19:10;;;;;;;18.17;10.33;;;;;;;;;;5035506;28;20834;-73
2023/03/22 02:21:55;;;;;;;19.73;11.83;;;;;;;;;;5037454;28;20207;-73
2023/03/22 02:24:45;;;;;;;15.80;10.27;;;;;;;;;;5047008;28;20267;-73
2023/03/22 02:27:33;;;;;;;17.17;10.63;;;;;;;;;;5052570;28;20191;-73
2023/03/22 02:30:07;;;;;;;20.33;11.73;;;;;;;;;;5043401;28;20705;-73
2023/03/22 02:32:48;;;;;;;18.90;11.37;;;;;;;;;;5034298;28;20267;-73
2023/03/22 02:35:26;;;;;;;18.43;11.33;;;;;;;;;;5034585;28;20282;-72
2023/03/22 02:38:05;;;;;;;19.40;11.67;;;;;;;;;;5046615;28;20238;-73
2023/03/22 02:40:41;;;;;;;16.00;11.33;;;;;;;;;;5026068;28;20199;-73
2023/03/22 02:43:15;;;;;;;19.90;13.40;;;;;;;;;;5038997;28;20215;-73
2023/03/22 02:45:52;;;;;;;18.17;11.50;;;;;;;;;;5050412;28;20349;-73
2023/03/22 02:55:54;;;;;;;20.33;11.70;;;;;;;;;;5027653;28;20677;-73
2023/03/22 02:58:25;;;;;;;20.33;12.47;;;;;;;;;;5032625;28;20257;-73
2023/03/22 03:00:55;;;;;;;18.87;11.23;;;;;;;;;;5035045;28;20211;-73
2023/03/22 03:03:24;;;;;;;19.37;12.80;;;;;;;;;;5030718;28;20199;-73
2023/03/22 03:05:57;;;;;;;19.70;11.83;;;;;;;;;;5034973;28;20314;-73
2023/03/22 03:08:27;;;;;;;25.67;12.10;;;;;;;;;;5034406;28;20234;-73
2023/03/22 03:11:04;;;;;;;19.57;12.27;;;;;;;;;;5028325;28;20190;-73
2023/03/22 03:13:34;;;;;;;20.10;11.93;;;;;;;;;;5027079;28;20219;-73
2023/03/22 03:16:06;;;;;;;18.43;12.20;;;;;;;;;;5059733;28;20187;-72
2023/03/22 03:18:44;;;;;;;17.47;12.60;;;;;;;;;;5052190;28;20208;-72
2023/03/22 03:21:20;;;;;;;19.20;11.63;;;;;;;;;;5039285;28;20267;-73
2023/03/22 03:23:51;;;;;;;20.87;13.07;;;;;;;;;;5032919;28;20223;-73
2023/03/22 03:26:24;;;;;;;19.57;11.23;;;;;;;;;;5039560;28;20624;-72
2023/03/22 03:28:58;;;;;;;18.70;13.40;;;;;;;;;;5040099;28;20287;-73
2023/03/22 03:31:30;;;;;;;20.30;11.80;;;;;;;;;;5037754;28;20192;-73
2023/03/22 03:34:06;;;;;;;22.40;12.33;;;;;;;;;;5051097;28;20238;-73
2023/03/22 03:36:39;;;;;;;18.80;12.73;;;;;;;;;;5051136;28;20726;-73
2023/03/22 03:39:09;;;;;;;19.03;12.40;;;;;;;;;;5041305;28;20219;-73
2023/03/22 03:41:40;;;;;;;20.20;12.73;;;;;;;;;;5032454;28;20266;-74
2023/03/22 03:44:12;;;;;;;24.83;13.10;;;;;;;;;;5055147;28;20575;-73
2023/03/22 03:46:43;;;;;;;25.40;13.80;;;;;;;;;;5047089;28;20199;-73
2023/03/22 03:52:12;;;;;;;18.53;11.97;;;;;;;;;;5033683;28;20526;-73
2023/03/22 03:54:44;;;;;;;24.07;13.47;;;;;;;;;;5047937;28;20215;-73
2023/03/22 03:57:17;;;;;;;22.47;12.23;;;;;;;;;;5036637;28;20192;-73
2023/03/22 03:59:49;;;;;;;22.17;11.93;;;;;;;;;;5037674;28;20207;-73
2023/03/22 04:02:26;;;;;;;18.77;11.60;;;;;;;;;;5037031;28;20470;-73
2023/03/22 04:04:58;;;;;;;20.50;12.33;;;;;;;;;;5038077;28;20239;-73
2023/03/22 04:07:35;;;;;;;21.43;13.13;;;;;;;;;;5061582;28;20223;-73
2023/03/22 04:10:04;;;;;;;18.33;12.30;;;;;;;;;;5033501;28;20242;-73
2023/03/22 04:12:35;;;;;;;19.23;12.73;;;;;;;;;;5032890;28;20214;-73
2023/03/22 04:15:14;;;;;;;20.53;13.43;;;;;;;;;;5035527;28;20233;-72
2023/03/22 04:17:45;;;;;;;26.70;13.87;;;;;;;;;;5041139;28;20199;-73
2023/03/22 04:20:18;;;;;;;22.23;13.30;;;;;;;;;;5047183;28;20584;-73
2023/03/22 04:22:51;;;;;;;21.77;13.17;;;;;;;;;;5036675;28;20226;-73
2023/03/22 04:25:21;;;;;;;22.20;12.33;;;;;;;;;;5054809;28;20591;-73
2023/03/22 04:28:06;;;;;;;17.63;11.83;;;;;;;;;;5040011;28;20267;-73
2023/03/22 04:30:37;;;;;;;20.80;12.47;;;;;;;;;;5059736;28;20189;-73
2023/03/22 04:33:25;;;;;;;20.00;13.10;;;;;;;;;;5057423;28;20199;-73
2023/03/22 04:36:21;;;;;;;19.07;12.23;;;;;;;;;;5037047;28;20200;-73
2023/03/22 04:39:06;;;;;;;18.47;12.17;;;;;;;;;;5038115;28;20211;-72
2023/03/22 04:41:43;;;;;;;19.27;12.23;;;;;;;;;;5048995;28;20187;-73
2023/03/22 04:44:15;;;;;;;21.40;11.67;;;;;;;;;;5036824;28;20743;-73
2023/03/22 04:46:48;;;;;;;18.50;11.40;;;;;;;;;;5032062;28;20249;-73
2023/03/22 04:49:16;;;;;;;17.93;11.43;;;;;;;;;;5052628;28;20207;-73
2023/03/22 04:51:47;;;;;;;19.90;11.73;;;;;;;;;;5041219;28;20620;-73
2023/03/22 04:54:27;;;;;;;20.90;11.87;;;;;;;;;;5039930;28;20250;-73
2023/03/22 04:56:57;;;;;;;19.20;11.53;;;;;;;;;;5036060;28;20200;-73
2023/03/22 04:59:28;;;;;;;19.77;10.87;;;;;;;;;;5037082;28;20230;-73
2023/03/22 05:02:01;;;;;;;17.63;10.70;;;;;;;;;;5028604;28;20341;-73
2023/03/22 05:04:42;;;;;;;17.70;11.77;;;;;;;;;;5034200;28;20219;-73
2023/03/22 05:07:18;;;;;;;20.70;10.87;;;;;;;;;;5034083;28;20271;-73
2023/03/22 05:10:01;;;;;;;21.53;10.70;;;;;;;;;;5053266;28;20199;-73
2023/03/22 05:12:31;;;;;;;19.87;11.47;;;;;;;;;;5036215;28;20206;-73
2023/03/22 05:15:06;;;;;;;15.77;10.87;;;;;;;;;;5040751;28;20222;-73
2023/03/22 05:17:39;;;;;;;19.10;11.47;;;;;;;;;;5038779;28;20204;-73
2023/03/22 05:20:14;;;;;;;15.30;10.47;;;;;;;;;;5034188;28;20229;-73
2023/03/22 05:22:49;;;;;;;15.87;10.60;;;;;;;;;;5031670;28;20202;-73
2023/03/22 05:25:19;;;;;;;17.17;10.13;;;;;;;;;;5033984;28;20227;-73
2023/03/22 05:27:49;;;;;;;17.80;10.17;;;;;;;;;;5036973;28;20798;-73
2023/03/22 05:30:53;;;;;;;18.27;9.77;;;;;;;;;;5043176;28;20205;-73
2023/03/22 05:33:53;;;;;;;18.40;10.13;;;;;;;;;;5046100;28;20223;-73
2023/03/22 05:36:24;;;;;;;15.90;10.20;;;;;;;;;;5035234;28;20214;-73
2023/03/22 05:39:14;;;;;;;18.30;10.77;;;;;;;;;;5034710;28;20232;-73
2023/03/22 05:41:49;;;;;;;20.60;10.30;;;;;;;;;;5048417;28;20266;-73
2023/03/22 05:44:21;;;;;;;16.93;9.83;;;;;;;;;;5035303;28;20230;-73
2023/03/22 05:46:58;;;;;;;16.00;10.07;;;;;;;;;;5032265;28;20199;-73
2023/03/22 05:49:44;;;;;;;18.13;9.83;;;;;;;;;;5047699;28;20198;-73
2023/03/22 05:52:16;;;;;;;16.83;9.97;;;;;;;;;;5046917;28;20195;-73
2023/03/22 05:55:03;;;;;;;15.93;9.83;;;;;;;;;;5051599;28;20339;-73
2023/03/22 05:57:34;;;;;;;16.87;9.93;;;;;;;;;;5032284;28;20299;-73
2023/03/22 06:00:09;;;;;;;19.83;10.00;;;;;;;;;;5040618;28;20267;-73
2023/03/22 06:02:45;;;;;;;18.63;11.13;;;;;;;;;;5048846;28;20203;-74
2023/03/22 06:05:23;;;;;;;23.13;10.97;;;;;;;;;;5035425;28;20233;-73
2023/03/22 06:07:51;;;;;;;18.17;11.37;;;;;;;;;;5032507;28;20203;-74
2023/03/22 06:10:25;;;;;;;20.47;12.00;;;;;;;;;;5031438;28;20207;-73
2023/03/22 06:13:00;;;;;;;19.63;12.40;;;;;;;;;;5063482;28;20191;-73
2023/03/22 06:15:36;;;;;;;21.97;13.27;;;;;;;;;;5039096;28;20710;-73
2023/03/22 06:18:09;;;;;;;24.47;13.67;;;;;;;;;;5032656;28;20611;-73
2023/03/22 06:20:42;;;;;;;31.37;14.40;;;;;;;;;;5048119;28;20194;-73
2023/03/22 06:23:36;;;;;;;22.37;12.03;;;;;;;;;;5046718;28;20249;-73
2023/03/22 06:26:08;;;;;;;21.03;12.47;;;;;;;;;;5051345;28;20208;-73
2023/03/22 06:28:45;;;;;;;19.73;12.80;;;;;;;;;;5037299;28;20196;-73
2023/03/22 06:31:12;;;;;;;22.30;13.10;;;;;;;;;;5041384;28;20199;-74
2023/03/22 06:33:51;;;;;;;21.77;12.30;;;;;;;;;;5047514;28;20235;-74
2023/03/22 06:36:30;;;;;;;18.50;10.83;;;;;;;;;;5038731;28;20206;-73
2023/03/22 06:39:13;;;;;;;18.83;11.13;;;;;;;;;;5037060;28;20291;-73
2023/03/22 06:41:46;;;;;;;17.53;10.63;;;;;;;;;;5037979;28;20225;-72
2023/03/22 06:44:23;;;;;;;19.13;10.40;;;;;;;;;;5035590;28;20306;-74
2023/03/22 06:47:16;;;;;;;18.13;10.33;;;;;;;;;;5031817;28;20193;-73
2023/03/22 06:50:14;;;;;;;19.20;10.63;;;;;;;;;;5040631;28;20652;-73
2023/03/22 06:53:04;;;;;;;19.53;10.93;;;;;;;;;;5041845;28;20712;-73
2023/03/22 06:55:33;;;;;;;19.50;10.73;;;;;;;;;;5041037;28;20231;-72
2023/03/22 06:58:19;;;;;;;19.27;10.63;;;;;;;;;;5053754;28;20380;-73
2023/03/22 07:00:47;;;;;;;21.47;11.13;;;;;;;;;;5040430;28;20219;-73
2023/03/22 07:03:26;;;;;;;24.03;12.03;;;;;;;;;;5034904;28;20247;-73
2023/03/22 07:06:03;;;;;;;24.70;12.30;;;;;;;;;;5034416;28;20547;-72
2023/03/22 07:08:33;;;;;;;17.90;10.17;;;;;;;;;;5025252;28;20213;-73
2023/03/22 07:11:12;;;;;;;20.63;11.63;;;;;;;;;;5028488;28;20682;-72
2023/03/22 07:13:39;;;;;;;19.70;11.53;;;;;;;;;;5032834;28;20216;-73
2023/03/22 07:16:11;;;;;;;19.40;11.63;;;;;;;;;;5033164;28;20292;-73
2023/03/22 07:19:00;;;;;;;23.70;15.37;;;;;;;;;;5027267;28;20210;-73
2023/03/22 07:21:32;;;;;;;20.90;13.10;;;;;;;;;;5033688;28;20202;-73
2023/03/22 07:24:05;;;;;;;19.80;12.43;;;;;;;;;;5051714;28;20214;-72
2023/03/22 07:26:35;;;;;;;23.13;11.37;;;;;;;;;;5033173;28;20678;-72
2023/03/22 07:29:05;;;;;;;20.87;11.70;;;;;;;;;;5030765;28;20681;-72
2023/03/22 07:31:35;;;;;;;19.47;11.57;;;;;;;;;;5027549;28;20210;-72
2023/03/22 07:34:04;;;;;;;17.43;11.27;;;;;;;;;;5028182;28;20209;-72
2023/03/22 07:36:39;;;;;;;26.17;13.47;;;;;;;;;;5034400;28;20299;-72
2023/03/22 07:39:12;;;;;;;21.30;11.57;;;;;;;;;;5034176;28;20210;-72
2023/03/22 07:41:43;;;;;;;28.13;14.70;;;;;;;;;;5027492;28;20199;-74
2023/03/22 07:44:33;;;;;;;29.83;15.63;;;;;;;;;;5037128;28;20225;-73
2023/03/22 07:47:26;;;;;;;25.60;14.73;;;;;;;;;;5018393;28;20248;-72
2023/03/22 07:50:10;;;;;;;25.97;14.80;;;;;;;;;;5023310;28;20278;-72
2023/03/22 07:52:39;;;;;;;22.63;13.37;;;;;;;;;;5026529;28;20220;-72
2023/03/22 07:55:10;;;;;;;23.33;12.20;;;;;;;;;;5030649;28;20214;-73
2023/03/22 07:57:37;;;;;;;27.20;13.90;;;;;;;;;;5031242;28;20194;-73
2023/03/22 08:00:04;;;;;;;27.97;13.63;;;;;;;;;;5031343;28;20650;-73
2023/03/22 08:03:04;;;;;;;24.80;12.83;;;;;;;;;;5030969;28;20207;-72
2023/03/22 08:05:57;;;;;;;30.20;14.17;;;;;;;;;;5028726;28;20203;-72
2023/03/22 08:08:34;;;;;;;26.97;13.63;;;;;;;;;;5026344;28;20886;-72
2023/03/22 08:11:01;;;;;;;30.27;14.67;;;;;;;;;;5029168;28;20669;-73
2023/03/22 08:13:27;;;;;;;34.00;15.47;;;;;;;;;;5028959;28;20210;-72
2023/03/22 08:15:55;;;;;;;29.47;16.03;;;;;;;;;;5036014;28;20219;-74
2023/03/22 08:18:23;;;;;;;32.77;15.70;;;;;;;;;;5037010;28;20283;-72
2023/03/22 08:20:56;;;;;;;32.47;16.33;;;;;;;;;;5032967;28;20228;-72
2023/03/22 08:23:23;;;;;;;32.57;16.07;;;;;;;;;;5031542;28;20566;-72
2023/03/22 08:26:24;;;;;;;30.77;16.20;;;;;;;;;;5026574;28;20300;-72
2023/03/22 08:28:56;;;;;;;34.57;17.07;;;;;;;;;;5034565;28;20666;-72
2023/03/22 08:31:25;;;;;;;29.83;16.13;;;;;;;;;;5042955;28;20688;-72
2023/03/22 08:33:52;;;;;;;28.30;15.37;;;;;;;;;;5038740;28;20699;-72
2023/03/22 08:36:25;;;;;;;27.20;14.03;;;;;;;;;;5033152;28;20236;-73
2023/03/22 08:39:00;;;;;;;27.03;13.97;;;;;;;;;;5036523;28;20610;-73
2023/03/22 08:42:00;;;;;;;21.97;13.70;;;;;;;;;;5025089;28;20294;-72
2023/03/22 08:44:31;;;;;;;18.70;11.67;;;;;;;;;;5028272;28;20274;-72
2023/03/22 08:46:59;;;;;;;15.20;9.23;;;;;;;;;;5031621;28;20211;-73
2023/03/22 08:49:33;;;;;;;13.03;8.00;;;;;;;;;;5029333;28;20209;-74
2023/03/22 08:52:07;;;;;;;9.80;6.97;;;;;;;;;;5022111;28;20188;-72
2023/03/22 08:55:00;;;;;;;7.73;5.50;;;;;;;;;;5041292;28;20565;-75
2023/03/22 08:57:49;;;;;;;8.63;6.43;;;;;;;;;;5044690;28;20221;-72
2023/03/22 09:00:56;;;;;;;8.80;6.00;;;;;;;;;;5037156;28;20595;-72
2023/03/22 09:03:35;;;;;;;7.50;5.27;;;;;;;;;;5026876;28;20220;-73
2023/03/22 09:06:02;;;;;;;8.23;6.17;;;;;;;;;;5026664;28;20677;-72
2023/03/22 09:08:34;;;;;;;8.17;6.00;;;;;;;;;;5024011;28;20283;-72
2023/03/22 09:11:08;;;;;;;9.13;6.67;;;;;;;;;;5039920;28;20677;-73
2023/03/22 09:13:40;;;;;;;7.70;5.10;;;;;;;;;;5024621;28;20223;-74
2023/03/22 09:16:09;;;;;;;7.40;4.83;;;;;;;;;;5033857;28;20290;-73
2023/03/22 09:18:37;;;;;;;7.47;4.87;;;;;;;;;;5038353;28;20675;-73
2023/03/22 09:21:10;;;;;;;6.67;5.10;;;;;;;;;;5027305;28;20235;-73
2023/03/22 09:23:46;;;;;;;7.40;4.67;;;;;;;;;;5039326;28;20221;-73
2023/03/22 09:26:14;;;;;;;7.23;4.77;;;;;;;;;;5036664;28;20292;-73
2023/03/22 09:28:44;;;;;;;6.73;4.70;;;;;;;;;;5026584;28;20200;-72
2023/03/22 09:31:12;;;;;;;6.67;4.60;;;;;;;;;;5036795;28;20203;-73
2023/03/22 09:33:41;;;;;;;5.27;4.00;;;;;;;;;;5035491;28;20280;-75
2023/03/22 09:36:08;;;;;;;5.53;4.33;;;;;;;;;;5047241;28;20193;-74
2023/03/22 09:38:35;;;;;;;5.33;3.97;;;;;;;;;;5030206;28;20653;-73
2023/03/22 09:41:04;;;;;;;6.77;4.13;;;;;;;;;;5027873;28;20592;-74
2023/03/22 09:43:39;;;;;;;5.20;4.03;;;;;;;;;;5040159;28;20219;-74
2023/03/22 09:46:12;;;;;;;6.87;4.03;;;;;;;;;;5025430;28;20570;-73
2023/03/22 09:48:40;;;;;;;5.70;4.37;;;;;;;;;;5037724;28;20201;-73
2023/03/22 09:51:14;;;;;;;8.53;4.83;;;;;;;;;;5039225;28;20198;-75
2023/03/22 09:53:44;;;;;;;6.60;4.47;;;;;;;;;;5028674;28;20214;-73
2023/03/22 09:56:16;;;;;;;6.30;4.60;;;;;;;;;;5024207;28;20293;-74
2023/03/22 09:58:47;;;;;;;5.23;4.33;;;;;;;;;;5022135;28;20206;-73
2023/03/22 10:01:20;;;;;;;6.50;4.60;;;;;;;;;;5041879;28;20670;-72
2023/03/22 10:04:02;;;;;;;7.20;4.30;;;;;;;;;;5035673;28;20223;-74
2023/03/22 10:06:29;;;;;;;5.87;4.03;;;;;;;;;;5029322;28;20699;-73
2023/03/22 10:08:59;;;;;;;5.47;4.50;;;;;;;;;;5023651;28;20213;-73
2023/03/22 10:11:34;;;;;;;5.93;4.47;;;;;;;;;;5018268;28;20196;-76
2023/03/22 10:14:07;;;;;;;6.50;4.73;;;;;;;;;;5019357;28;20724;-73
2023/03/22 10:16:40;;;;;;;6.70;4.10;;;;;;;;;;5020731;28;20210;-73
2023/03/22 10:19:16;;;;;;;6.40;4.77;;;;;;;;;;5042709;28;20550;-73
2023/03/22 10:21:43;;;;;;;5.90;4.37;;;;;;;;;;5034752;28;20302;-72
2023/03/22 10:24:13;;;;;;;5.43;4.07;;;;;;;;;;5029993;28;20219;-73
2023/03/22 10:26:41;;;;;;;8.87;4.37;;;;;;;;;;5045067;28;20525;-73
2023/03/22 10:29:11;;;;;;;5.97;4.20;;;;;;;;;;5027332;28;20217;-73
2023/03/22 10:31:42;;;;;;;5.10;4.20;;;;;;;;;;5020800;28;20195;-74
2023/03/22 10:34:15;;;;;;;4.90;3.97;;;;;;;;;;5029310;28;20223;-72
2023/03/22 10:36:56;;;;;;;7.33;4.07;;;;;;;;;;5018648;28;20191;-73
2023/03/22 10:39:36;;;;;;;9.13;4.03;;;;;;;;;;5010134;28;20204;-73
2023/03/22 10:45:22;;;;;;;6.17;4.20;;;;;;;;;;5042122;28;20321;-74
2023/03/22 10:47:59;;;;;;;4.80;3.77;;;;;;;;;;5025315;28;20548;-72
2023/03/22 10:50:40;;;;;;;5.53;3.70;;;;;;;;;;5041642;28;20194;-73
2023/03/22 10:53:40;;;;;;;4.40;3.60;;;;;;;;;;5042792;28;20202;-73
2023/03/22 11:06:00;;;;;;;9.67;6.40;;;;;;;;;;5043470;28;20210;-73
2023/03/22 11:08:53;;;;;;;6.37;4.27;;;;;;;;;;5042598;28;20199;-73
2023/03/22 11:11:31;;;;;;;6.40;4.30;;;;;;;;;;5044303;28;20199;-73
2023/03/22 11:16:53;;;;;;;4.87;3.80;;;;;;;;;;5028507;28;20199;-73
2023/03/22 11:19:47;;;;;;;5.20;3.77;;;;;;;;;;5022376;28;20199;-73
2023/03/22 11:22:39;;;;;;;4.07;3.20;;;;;;;;;;5026008;28;20199;-73
2023/03/22 11:25:14;;;;;;;6.13;3.50;;;;;;;;;;5039902;28;20708;-73
2023/03/22 11:27:59;;;;;;;5.40;3.47;;;;;;;;;;5045231;28;20195;-72
2023/03/22 11:30:30;;;;;;;4.13;2.87;;;;;;;;;;5041641;28;20439;-73
2023/03/22 11:33:06;;;;;;;5.73;3.17;;;;;;;;;;5029125;28;20269;-73
2023/03/22 11:35:38;;;;;;;2.90;2.30;;;;;;;;;;5043312;28;20215;-72
2023/03/22 11:41:58;;;;;;;4.40;2.17;;;;;;;;;;5052279;28;20306;-72
2023/03/22 11:49:58;;;;;;;2.97;2.30;;;;;;;;;;5031885;28;20199;-73
2023/03/22 11:52:29;;;;;;;3.27;2.20;;;;;;;;;;5046607;28;20203;-76
2023/03/22 11:55:02;;;;;;;3.77;2.00;;;;;;;;;;5048749;28;20751;-73
2023/03/22 11:57:44;;;;;;;2.53;2.23;;;;;;;;;;5045772;28;20194;-74
2023/03/22 12:00:21;;;;;;;2.20;1.60;;;;;;;;;;5022793;28;20289;-74
2023/03/22 12:03:08;;;;;;;6.03;1.93;;;;;;;;;;5038401;28;20301;-74
2023/03/22 12:09:19;;;;;;;1.90;1.70;;;;;;;;;;5037460;28;20199;-74
2023/03/22 12:12:07;;;;;;;2.60;1.60;;;;;;;;;;5020231;28;20201;-74
2023/03/22 12:14:40;;;;;;;3.93;1.70;;;;;;;;;;5021548;28;20633;-74
2023/03/22 12:17:15;;;;;;;2.33;1.70;;;;;;;;;;5025189;28;20206;-75
2023/03/22 12:19:54;;;;;;;2.70;1.33;;;;;;;;;;5017757;28;20202;-73
2023/03/22 12:22:42;;;;;;;1.70;1.47;;;;;;;;;;5026379;28;20218;-74
2023/03/22 12:25:16;;;;;;;2.17;1.40;;;;;;;;;;5015719;28;20286;-74
2023/03/22 12:27:55;;;;;;;2.53;1.20;;;;;;;;;;5017120;28;20298;-74
2023/03/22 12:30:25;;;;;;;3.63;1.70;;;;;;;;;;5021453;28;20645;-73
2023/03/22 12:32:57;;;;;;;1.60;1.10;;;;;;;;;;5036824;28;20210;-74
2023/03/22 12:35:35;;;;;;;3.30;1.50;;;;;;;;;;5035783;28;20236;-74
2023/03/22 12:38:16;;;;;;;3.27;1.50;;;;;;;;;;4999056;28;20684;-74
2023/03/22 12:40:44;;;;;;;2.60;1.60;;;;;;;;;;5037214;28;20583;-74
2023/03/22 12:43:26;;;;;;;3.17;1.57;;;;;;;;;;5035524;28;20279;-74
2023/03/22 12:46:00;;;;;;;2.97;1.50;;;;;;;;;;5034388;28;20206;-74
2023/03/22 12:48:33;;;;;;;1.47;1.37;;;;;;;;;;5017496;28;20282;-74
2023/03/22 12:51:03;;;;;;;1.83;1.30;;;;;;;;;;5017437;28;20200;-73
2023/03/22 12:53:41;;;;;;;4.13;1.70;;;;;;;;;;5019366;28;20231;-74
2023/03/22 12:56:20;;;;;;;2.87;1.70;;;;;;;;;;5033235;28;20265;-74
2023/03/22 12:59:00;;;;;;;3.90;1.60;;;;;;;;;;5018271;28;20210;-74
2023/03/22 13:01:32;;;;;;;2.43;1.77;;;;;;;;;;5031505;28;20310;-74
2023/03/22 13:04:21;;;;;;;2.40;1.73;;;;;;;;;;5016168;28;20578;-74
2023/03/22 13:07:09;;;;;;;3.77;1.60;;;;;;;;;;5036125;28;20213;-74
2023/03/22 13:12:28;;;;;;;4.03;1.60;;;;;;;;;;5035189;28;20188;-75
2023/03/22 13:14:59;;;;;;;3.37;1.50;;;;;;;;;;5045293;28;20235;-73
2023/03/22 13:17:42;;;;;;;2.00;1.50;;;;;;;;;;5040828;28;20265;-72
2023/03/22 13:20:26;;;;;;;1.50;1.40;;;;;;;;;;5038637;28;20651;-74
2023/03/22 13:23:07;;;;;;;1.50;1.10;;;;;;;;;;5034531;28;20294;-73
2023/03/22 13:25:34;;;;;;;1.83;1.20;;;;;;;;;;5039132;28;20226;-73
2023/03/22 13:28:02;;;;;;;2.10;1.23;;;;;;;;;;5050389;28;20215;-74
2023/03/22 13:30:33;;;;;;;1.73;1.13;;;;;;;;;;5055731;28;20194;-74
2023/03/22 13:33:03;;;;;;;2.20;1.50;;;;;;;;;;5031562;28;20845;-73
2023/03/22 13:35:37;;;;;;;2.77;1.53;;;;;;;;;;5031433;28;20725;-74
2023/03/22 13:38:07;;;;;;;6.20;1.80;;;;;;;;;;5039169;28;20235;-74
2023/03/22 13:40:36;;;;;;;3.43;1.60;;;;;;;;;;5054704;28;20210;-74
2023/03/22 13:43:10;;;;;;;1.43;1.33;;;;;;;;;;5052297;28;20618;-74
2023/03/22 13:45:56;;;;;;;2.87;1.67;;;;;;;;;;5041082;28;20259;-74
2023/03/22 13:48:29;;;;;;;3.53;1.90;;;;;;;;;;5032790;28;20203;-74
2023/03/22 13:50:57;;;;;;;2.90;1.73;;;;;;;;;;5053489;28;20184;-73
2023/03/22 13:53:28;;;;;;;2.90;1.80;;;;;;;;;;5038677;28;20217;-72
2023/03/22 13:56:02;;;;;;;3.37;1.83;;;;;;;;;;5031089;28;20204;-73
2023/03/22 13:58:34;;;;;;;2.03;1.60;;;;;;;;;;5036999;28;20468;-74
2023/03/22 14:01:05;;;;;;;2.70;2.00;;;;;;;;;;5032476;28;20220;-74
2023/03/22 14:03:33;;;;;;;2.83;1.90;;;;;;;;;;5044262;28;20195;-73
2023/03/22 14:06:11;;;;;;;2.03;1.60;;;;;;;;;;5043374;28;20205;-73
2023/03/22 14:08:40;;;;;;;3.20;1.87;;;;;;;;;;5052196;28;20211;-71
2023/03/22 14:11:14;;;;;;;4.97;2.17;;;;;;;;;;5054391;28;20195;-72
2023/03/22 14:13:43;;;;;;;1.50;1.30;;;;;;;;;;5059759;28;20212;-72
2023/03/22 14:16:13;;;;;;;2.73;1.90;;;;;;;;;;5042607;28;20211;-72
2023/03/22 14:18:42;;;;;;;2.10;1.90;;;;;;;;;;5060326;28;20616;-74
2023/03/22 14:21:12;;;;;;;2.47;1.63;;;;;;;;;;5056917;28;20211;-73
2023/03/22 14:23:40;;;;;;;2.70;1.67;;;;;;;;;;5055805;28;20219;-74
2023/03/22 14:26:08;;;;;;;3.93;1.50;;;;;;;;;;5043617;28;20290;-75
2023/03/22 14:28:39;;;;;;;3.30;1.80;;;;;;;;;;5055524;28;20218;-73
2023/03/22 14:31:06;;;;;;;1.23;1.13;;;;;;;;;;5039538;28;20195;-73
2023/03/22 14:33:36;;;;;;;2.77;1.50;;;;;;;;;;5036932;28;20219;-74
2023/03/22 14:36:04;;;;;;;1.80;1.30;;;;;;;;;;5038530;28;20194;-73
2023/03/22 14:38:32;;;;;;;3.13;1.40;;;;;;;;;;5038444;28;20217;-74
2023/03/22 14:41:06;;;;;;;2.83;1.47;;;;;;;;;;5042385;28;20190;-74
2023/03/22 14:43:33;;;;;;;2.00;1.00;;;;;;;;;;5056424;28;20222;-74
2023/03/22 14:46:04;;;;;;;3.03;1.47;;;;;;;;;;5040940;28;20201;-72
2023/03/22 14:48:32;;;;;;;1.47;1.37;;;;;;;;;;5055609;28;20198;-71
2023/03/22 14:51:02;;;;;;;2.10;1.30;;;;;;;;;;5037702;28;20892;-71
2023/03/22 14:53:30;;;;;;;1.93;1.10;;;;;;;;;;5037265;28;20616;-74
2023/03/22 14:55:59;;;;;;;2.37;1.43;;;;;;;;;;5048326;28;20229;-73
2023/03/22 14:58:29;;;;;;;3.47;1.70;;;;;;;;;;5038515;28;20809;-74
2023/03/22 15:00:59;;;;;;;1.53;1.27;;;;;;;;;;5056840;28;21318;-73
2023/03/22 15:03:26;;;;;;;1.90;1.40;;;;;;;;;;5052766;28;20241;-74
2023/03/22 15:05:53;;;;;;;3.00;1.60;;;;;;;;;;5047403;28;20199;-74
2023/03/22 15:08:25;;;;;;;1.37;1.27;;;;;;;;;;5035952;28;20288;-73
2023/03/22 15:10:54;;;;;;;2.37;1.37;;;;;;;;;;5034245;28;20199;-73
2023/03/22 15:13:22;;;;;;;1.73;1.20;;;;;;;;;;5049451;28;20211;-72
2023/03/22 15:15:49;;;;;;;2.17;1.60;;;;;;;;;;5031992;28;20191;-73
2023/03/22 15:18:16;;;;;;;1.97;1.27;;;;;;;;;;5032899;28;20203;-74
2023/03/22 15:20:45;;;;;;;2.23;1.37;;;;;;;;;;5031902;28;20240;-74
2023/03/22 15:23:14;;;;;;;1.50;1.20;;;;;;;;;;5034482;28;20235;-74
2023/03/22 15:25:48;;;;;;;3.57;1.47;;;;;;;;;;5028694;28;20557;-74
2023/03/22 15:28:19;;;;;;;1.27;1.17;;;;;;;;;;5031096;28;20256;-72
2023/03/22 15:30:47;;;;;;;2.23;1.03;;;;;;;;;;5031748;28;20211;-73
2023/03/22 15:33:19;;;;;;;3.07;1.27;;;;;;;;;;5026482;28;20210;-73
2023/03/22 15:35:46;;;;;;;1.20;1.10;;;;;;;;;;5048837;28;20199;-72
2023/03/22 15:38:13;;;;;;;2.70;1.30;;;;;;;;;;5035020;28;20195;-74
2023/03/22 15:40:43;;;;;;;2.00;1.07;;;;;;;;;;5051298;28;20192;-74
2023/03/22 15:43:19;;;;;;;2.10;1.10;;;;;;;;;;5049295;28;20564;-73
2023/03/22 15:46:05;;;;;;;3.13;1.50;;;;;;;;;;5034840;28;20205;-73
2023/03/22 15:48:40;;;;;;;1.90;1.30;;;;;;;;;;5048963;28;20199;-73
2023/03/22 15:51:07;;;;;;;1.30;1.20;;;;;;;;;;5033750;28;20195;-73
2023/03/22 15:53:35;;;;;;;2.23;1.37;;;;;;;;;;5033682;28;20654;-73